createdAt,value
2019-05-21T00:00:46.386Z,9.13
2019-05-21T00:03:15.685Z,14.17
2019-05-21T00:05:45.024Z,10.00
2019-05-21T00:08:14.401Z,9.17
2019-05-21T00:10:43.705Z,18.30
2019-05-21T00:13:12.985Z,9.10
2019-05-21T00:15:42.282Z,11.37
2019-05-21T00:18:11.619Z,10.10
2019-05-21T00:20:40.891Z,9.37
2019-05-21T00:23:10.161Z,6.80
2019-05-21T00:25:39.437Z,8.90
2019-05-21T00:28:37.681Z,8.07
2019-05-21T00:31:43.226Z,10.43
2019-05-21T00:34:48.377Z,8.30
2019-05-21T00:37:53.589Z,8.73
2019-05-21T00:40:59.058Z,10.73
2019-05-21T00:43:41.977Z,12.13
2019-05-21T00:46:11.272Z,10.43
2019-05-21T00:48:40.589Z,8.37
2019-05-21T00:51:09.897Z,9.13
2019-05-21T00:53:39.267Z,12.03
2019-05-21T00:56:08.689Z,7.57
2019-05-21T00:58:38.021Z,8.47
2019-05-21T01:01:07.385Z,8.43
2019-05-21T01:03:36.689Z,10.37
2019-05-21T01:06:06.061Z,10.07
2019-05-21T01:08:35.386Z,10.40
2019-05-21T01:11:04.750Z,8.20
2019-05-21T01:13:34.105Z,9.83
2019-05-21T01:16:03.380Z,8.57
2019-05-21T01:18:32.698Z,11.03
2019-05-21T01:21:01.961Z,12.50
2019-05-21T01:23:31.328Z,9.83
2019-05-21T01:26:00.676Z,9.83
2019-05-21T01:28:30.053Z,10.10
2019-05-21T01:30:59.299Z,9.27
2019-05-21T01:33:28.592Z,9.60
2019-05-21T01:35:57.853Z,10.43
2019-05-21T01:38:27.131Z,7.93
2019-05-21T01:40:56.584Z,8.63
2019-05-21T01:43:25.937Z,9.30
2019-05-21T01:45:55.193Z,8.90
2019-05-21T01:48:24.541Z,10.07
2019-05-21T01:50:53.816Z,9.30
2019-05-21T01:53:23.128Z,10.33
2019-05-21T01:55:52.403Z,10.00
2019-05-21T01:58:22.099Z,8.70
2019-05-21T02:00:51.431Z,13.03
2019-05-21T02:03:20.691Z,12.50
2019-05-21T02:05:50.409Z,9.33
2019-05-21T02:08:19.748Z,9.90
2019-05-21T02:10:49.047Z,8.13
2019-05-21T02:13:18.303Z,9.73
2019-05-21T02:15:47.611Z,8.70
2019-05-21T02:18:16.871Z,11.60
2019-05-21T02:20:46.159Z,8.03
2019-05-21T02:23:15.475Z,9.67
2019-05-21T02:25:44.860Z,9.37
2019-05-21T02:28:14.215Z,9.83
2019-05-21T02:30:43.513Z,13.03
2019-05-21T02:33:12.831Z,8.53
2019-05-21T02:35:53.766Z,14.80
2019-05-21T02:38:13.963Z,10.67
2019-05-21T02:40:43.239Z,9.77
2019-05-21T02:43:12.495Z,8.30
2019-05-21T02:45:42.109Z,9.87
2019-05-21T02:48:11.511Z,10.50
2019-05-21T02:50:40.874Z,8.63
2019-05-21T02:53:10.124Z,7.57
2019-05-21T02:55:39.426Z,15.47
2019-05-21T02:58:08.698Z,11.43
2019-05-21T03:00:53.972Z,10.10
2019-05-21T03:03:25.346Z,8.63
2019-05-21T03:06:12.430Z,12.23
2019-05-21T03:08:25.646Z,8.60
2019-05-21T03:10:54.864Z,7.83
2019-05-21T03:13:24.229Z,10.77
2019-05-21T03:15:53.463Z,10.10
2019-05-21T03:18:22.731Z,9.57
2019-05-21T03:20:52.026Z,9.63
2019-05-21T03:23:21.267Z,8.03
2019-05-21T03:25:50.531Z,9.40
2019-05-21T03:28:19.948Z,10.33
2019-05-21T03:30:49.337Z,7.93
2019-05-21T03:33:18.657Z,8.90
2019-05-21T03:35:47.975Z,10.90
2019-05-21T03:38:17.263Z,9.47
2019-05-21T03:40:46.590Z,8.63
2019-05-21T03:43:15.967Z,9.47
2019-05-21T03:45:45.353Z,11.53
2019-05-21T03:48:14.645Z,8.87
2019-05-21T03:50:44.033Z,9.67
2019-05-21T03:53:13.306Z,11.50
2019-05-21T03:55:42.618Z,10.50
2019-05-21T03:58:11.855Z,11.53
2019-05-21T04:00:41.167Z,12.67
2019-05-21T04:03:10.425Z,12.10
2019-05-21T04:05:39.825Z,11.13
2019-05-21T04:08:09.143Z,12.77
2019-05-21T04:10:38.406Z,13.10
2019-05-21T04:13:08.656Z,16.50
2019-05-21T04:15:47.238Z,12.20
2019-05-21T04:18:21.544Z,11.93
2019-05-21T04:20:50.866Z,13.37
2019-05-21T04:23:20.175Z,15.40
2019-05-21T04:25:49.461Z,13.20
2019-05-21T04:28:18.790Z,12.07
2019-05-21T04:30:48.581Z,15.20
2019-05-21T04:33:17.860Z,12.30
2019-05-21T04:35:47.137Z,15.47
2019-05-21T04:38:16.393Z,16.30
2019-05-21T04:40:45.770Z,14.90
2019-05-21T04:43:15.086Z,11.73
2019-05-21T04:45:44.372Z,14.30
2019-05-21T04:48:13.657Z,12.93
2019-05-21T04:50:42.982Z,13.87
2019-05-21T04:53:12.238Z,15.13
2019-05-21T04:55:41.474Z,12.87
2019-05-21T04:58:10.811Z,12.87
2019-05-21T05:00:40.133Z,17.13
2019-05-21T05:03:09.412Z,16.20
2019-05-21T05:05:38.899Z,12.47
2019-05-21T05:08:08.253Z,15.10
2019-05-21T05:10:37.597Z,17.60
2019-05-21T05:13:06.917Z,13.80
2019-05-21T05:15:36.292Z,20.17
2019-05-21T05:18:05.621Z,19.17
2019-05-21T05:20:34.884Z,17.57
2019-05-21T05:23:04.192Z,15.53
2019-05-21T05:25:33.509Z,15.40
2019-05-21T05:28:02.809Z,20.27
2019-05-21T05:30:32.088Z,17.30
2019-05-21T05:33:01.684Z,18.87
2019-05-21T05:35:30.949Z,15.97
2019-05-21T05:38:00.305Z,17.70
2019-05-21T05:40:29.699Z,15.63
2019-05-21T05:42:59.056Z,20.40
2019-05-21T05:45:28.373Z,14.90
2019-05-21T05:47:57.704Z,13.80
2019-05-21T05:50:30.320Z,14.07
2019-05-21T05:52:59.616Z,14.97
2019-05-21T05:55:28.920Z,16.33
2019-05-21T05:57:58.260Z,14.90
2019-05-21T06:00:27.760Z,16.30
2019-05-21T06:02:57.083Z,15.97
2019-05-21T06:05:26.288Z,13.97
2019-05-21T06:07:59.772Z,15.30
2019-05-21T06:10:26.538Z,14.43
2019-05-21T06:12:56.054Z,16.73
2019-05-21T06:15:25.352Z,19.57
2019-05-21T06:17:54.703Z,15.33
2019-05-21T06:20:24.237Z,15.83
2019-05-21T06:22:53.597Z,14.07
2019-05-21T06:25:23.026Z,15.80
2019-05-21T06:27:52.387Z,13.13
2019-05-21T06:30:23.539Z,14.20
2019-05-21T06:32:52.804Z,13.30
2019-05-21T06:35:22.173Z,15.67
2019-05-21T06:37:51.467Z,14.00
2019-05-21T06:40:20.963Z,14.57
2019-05-21T06:42:50.329Z,15.53
2019-05-21T06:45:20.363Z,12.70
2019-05-21T06:47:49.627Z,15.30
2019-05-21T06:50:19.076Z,14.53
2019-05-21T06:52:48.386Z,15.63
2019-05-21T06:55:17.572Z,14.93
2019-05-21T06:57:46.867Z,16.00
2019-05-21T07:00:17.044Z,13.83
2019-05-21T07:02:46.326Z,16.83
2019-05-21T07:05:15.649Z,15.23
2019-05-21T07:07:44.947Z,17.33
2019-05-21T07:10:14.853Z,15.87
2019-05-21T07:12:44.239Z,16.07
2019-05-21T07:15:13.934Z,17.20
2019-05-21T07:17:43.275Z,17.07
2019-05-21T07:20:13.886Z,21.13
2019-05-21T07:22:43.240Z,21.80
2019-05-21T07:25:13.631Z,22.93
2019-05-21T07:27:43.107Z,24.80
2019-05-21T07:30:12.474Z,23.33
2019-05-21T07:32:41.848Z,27.47
2019-05-21T07:35:11.276Z,30.80
2019-05-21T07:37:40.878Z,29.10
2019-05-21T07:40:10.562Z,26.70
2019-05-21T07:42:39.826Z,28.50
2019-05-21T07:45:09.344Z,32.90
2019-05-21T07:47:38.741Z,35.27
2019-05-21T07:50:08.214Z,32.53
2019-05-21T07:52:37.610Z,38.13
2019-05-21T07:55:07.214Z,36.10
2019-05-21T07:57:36.550Z,32.73
2019-05-21T08:00:07.675Z,33.90
2019-05-21T08:02:36.938Z,32.10
2019-05-21T08:05:06.790Z,27.63
2019-05-21T08:07:36.066Z,28.37
2019-05-21T08:10:08.047Z,33.70
2019-05-21T08:12:39.630Z,27.00
2019-05-21T08:15:09.062Z,26.03
2019-05-21T08:17:38.326Z,26.53
2019-05-21T08:20:10.274Z,24.70
2019-05-21T08:22:39.447Z,25.33
2019-05-21T08:25:08.854Z,22.43
2019-05-21T08:27:38.126Z,25.87
2019-05-21T08:30:08.038Z,32.57
2019-05-21T08:32:37.310Z,30.97
2019-05-21T08:35:07.007Z,33.43
2019-05-21T08:37:36.281Z,32.70
2019-05-21T08:40:06.189Z,28.10
2019-05-21T08:42:35.512Z,30.53
2019-05-21T08:45:05.419Z,32.73
2019-05-21T08:47:35.089Z,34.80
2019-05-21T08:50:05.151Z,30.03
2019-05-21T08:52:34.422Z,30.13
2019-05-21T08:55:03.847Z,38.90
2019-05-21T08:57:33.132Z,29.93
2019-05-21T09:00:02.503Z,32.77
2019-05-21T09:02:31.831Z,30.43
2019-05-21T09:05:01.117Z,31.57
2019-05-21T09:07:30.499Z,33.93
2019-05-21T09:09:59.806Z,30.67
2019-05-21T09:12:29.124Z,26.57
2019-05-21T09:14:58.420Z,30.33
2019-05-21T09:17:27.668Z,31.53
2019-05-21T09:19:57.044Z,26.83
2019-05-21T09:22:26.308Z,29.00
2019-05-21T09:24:55.677Z,25.20
2019-05-21T09:27:24.964Z,27.40
2019-05-21T09:29:54.310Z,27.17
2019-05-21T09:32:23.616Z,28.20
2019-05-21T09:34:52.972Z,27.03
2019-05-21T09:37:22.237Z,25.53
2019-05-21T09:39:51.677Z,28.80
2019-05-21T09:42:20.869Z,24.03
2019-05-21T09:44:50.188Z,24.00
2019-05-21T09:47:19.556Z,28.97
2019-05-21T09:49:48.864Z,27.70
2019-05-21T09:52:18.290Z,25.50
2019-05-21T09:54:47.675Z,23.03
2019-05-21T09:57:21.397Z,21.57
2019-05-21T10:00:14.851Z,21.80
2019-05-21T10:02:44.117Z,22.83
2019-05-21T10:05:13.516Z,19.53
2019-05-21T10:07:42.855Z,20.70
2019-05-21T10:10:12.419Z,20.73
2019-05-21T10:12:41.806Z,18.40
2019-05-21T10:15:11.239Z,21.17
2019-05-21T10:17:40.581Z,20.60
2019-05-21T10:20:09.983Z,16.17
2019-05-21T10:22:39.363Z,15.67
2019-05-21T10:25:08.658Z,14.57
2019-05-21T10:27:38.083Z,14.63
2019-05-21T10:30:07.708Z,16.13
2019-05-21T10:32:37.055Z,17.10
2019-05-21T10:35:06.662Z,15.30
2019-05-21T10:37:35.999Z,16.37
2019-05-21T10:40:05.739Z,15.50
2019-05-21T10:42:35.121Z,12.57
2019-05-21T10:45:04.694Z,13.83
2019-05-21T10:47:33.978Z,12.00
2019-05-21T10:50:03.283Z,13.30
2019-05-21T10:52:32.685Z,12.13
2019-05-21T10:55:02.117Z,15.57
2019-05-21T10:57:31.505Z,11.67
2019-05-21T11:00:00.843Z,12.70
2019-05-21T11:02:42.543Z,14.17
2019-05-21T11:05:33.900Z,10.60
2019-05-21T11:08:23.109Z,10.87
2019-05-21T11:10:34.242Z,8.87
2019-05-21T11:13:03.984Z,9.70
2019-05-21T11:15:33.245Z,10.40
2019-05-21T11:18:10.319Z,8.80
2019-05-21T11:20:33.434Z,8.20
2019-05-21T11:23:02.706Z,10.43
2019-05-21T11:25:32.102Z,10.00
2019-05-21T11:28:02.690Z,8.63
2019-05-21T11:30:32.496Z,8.13
2019-05-21T11:33:01.830Z,9.60
2019-05-21T11:35:31.393Z,9.27
2019-05-21T11:38:00.646Z,8.90
2019-05-21T11:40:30.825Z,7.30
2019-05-21T11:43:00.190Z,11.23
2019-05-21T11:45:32.668Z,7.37
2019-05-21T11:48:00.438Z,6.08
2019-05-21T11:50:29.722Z,6.78
2019-05-21T11:52:59.138Z,7.70
2019-05-21T11:55:28.908Z,9.53
2019-05-21T11:57:58.206Z,7.33
2019-05-21T12:00:28.961Z,6.37
2019-05-21T12:02:58.388Z,5.10
2019-05-21T12:05:27.683Z,7.05
2019-05-21T12:07:57.653Z,5.75
2019-05-21T12:10:26.957Z,8.78
2019-05-21T12:12:56.357Z,9.75
2019-05-21T12:15:25.706Z,5.45
2019-05-21T12:17:55.306Z,5.60
2019-05-21T12:20:35.974Z,4.95
2019-05-21T12:22:55.541Z,6.95
2019-05-21T12:25:24.889Z,5.10
2019-05-21T12:27:54.258Z,4.70
2019-05-21T12:30:23.630Z,7.35
2019-05-21T12:32:52.905Z,6.95
2019-05-21T12:35:22.207Z,6.72
2019-05-21T12:37:51.508Z,6.75
2019-05-21T12:40:20.956Z,8.50
2019-05-21T12:42:50.299Z,7.05
2019-05-21T12:45:19.597Z,9.03
2019-05-21T12:47:50.750Z,5.05
2019-05-21T12:50:19.992Z,4.40
2019-05-21T12:52:49.424Z,4.80
2019-05-21T12:55:18.697Z,4.30
2019-05-21T12:57:48.064Z,4.67
2019-05-21T13:00:17.717Z,4.30
2019-05-21T13:02:47.062Z,5.17
2019-05-21T13:05:16.588Z,3.72
2019-05-21T13:07:45.881Z,4.90
2019-05-21T13:10:15.668Z,4.20
2019-05-21T13:12:44.988Z,5.17
2019-05-21T13:15:14.252Z,6.72
2019-05-21T13:17:43.568Z,4.58
2019-05-21T13:20:13.760Z,3.77
2019-05-21T13:22:43.034Z,4.70
2019-05-21T13:25:12.446Z,6.70
2019-05-21T13:27:41.784Z,4.87
2019-05-21T13:30:11.606Z,4.08
2019-05-21T13:32:43.791Z,4.67
2019-05-21T13:35:12.188Z,5.58
2019-05-21T13:37:41.512Z,5.28
2019-05-21T13:40:11.865Z,3.92
2019-05-21T13:42:41.117Z,4.65
2019-05-21T13:45:11.512Z,3.90
2019-05-21T13:47:40.844Z,3.65
2019-05-21T13:50:11.052Z,5.55
2019-05-21T13:52:40.368Z,6.97
2019-05-21T13:55:09.935Z,3.95
2019-05-21T13:57:39.247Z,4.50
2019-05-21T14:00:10.992Z,4.37
2019-05-21T14:02:40.250Z,4.72
2019-05-21T14:05:09.795Z,6.28
2019-05-21T14:07:39.230Z,5.50
2019-05-21T14:10:15.438Z,4.08
2019-05-21T14:12:39.851Z,4.80
2019-05-21T14:15:09.387Z,5.03
2019-05-21T14:17:38.606Z,3.75
2019-05-21T14:20:08.527Z,3.12
2019-05-21T14:22:37.869Z,7.05
2019-05-21T14:25:07.387Z,4.25
2019-05-21T14:27:44.470Z,5.58
2019-05-21T14:30:08.930Z,4.58
2019-05-21T14:32:38.186Z,4.92
2019-05-21T14:35:08.506Z,4.10
2019-05-21T14:37:37.815Z,4.17
2019-05-21T14:40:07.699Z,3.98
2019-05-21T14:42:37.014Z,4.00
2019-05-21T14:45:06.539Z,5.92
2019-05-21T14:47:35.779Z,4.45
2019-05-21T14:50:05.674Z,6.00
2019-05-21T14:52:35.071Z,6.33
2019-05-21T14:55:04.955Z,6.53
2019-05-21T14:57:34.458Z,5.53
2019-05-21T15:00:06.106Z,6.90
2019-05-21T15:02:37.113Z,3.25
2019-05-21T15:05:07.183Z,3.70
2019-05-21T15:07:36.450Z,7.50
2019-05-21T15:10:06.323Z,3.92
2019-05-21T15:12:35.615Z,3.65
2019-05-21T15:15:05.460Z,5.22
2019-05-21T15:17:34.847Z,4.58
2019-05-21T15:20:07.486Z,5.30
2019-05-21T15:22:36.794Z,4.33
2019-05-21T15:25:06.117Z,4.05
2019-05-21T15:27:35.474Z,4.20
2019-05-21T15:30:05.434Z,4.05
2019-05-21T15:32:34.798Z,5.20
2019-05-21T15:35:04.371Z,3.50
2019-05-21T15:37:33.745Z,4.17
2019-05-21T15:40:03.142Z,7.42
2019-05-21T15:42:32.442Z,8.95
2019-05-21T15:45:01.817Z,5.67
2019-05-21T15:47:31.089Z,5.28
2019-05-21T15:50:00.373Z,7.37
2019-05-21T15:52:29.714Z,6.47
2019-05-21T15:54:59.001Z,7.07
2019-05-21T15:57:28.445Z,8.83
2019-05-21T15:59:57.738Z,6.27
2019-05-21T16:02:26.999Z,5.43
2019-05-21T16:04:56.293Z,8.33
2019-05-21T16:07:25.637Z,6.70
2019-05-21T16:09:55.037Z,10.03
2019-05-21T16:12:24.861Z,7.07
2019-05-21T16:14:54.277Z,10.60
2019-05-21T16:17:23.541Z,7.20
2019-05-21T16:19:52.882Z,10.23
2019-05-21T16:22:22.244Z,7.87
2019-05-21T16:24:51.625Z,5.07
2019-05-21T16:27:20.932Z,5.60
2019-05-21T16:29:50.336Z,4.90
2019-05-21T16:32:19.692Z,6.77
2019-05-21T16:34:48.971Z,5.93
2019-05-21T16:37:18.611Z,5.80
2019-05-21T16:39:47.860Z,5.83
2019-05-21T16:42:17.144Z,8.07
2019-05-21T16:44:46.500Z,4.50
2019-05-21T16:47:15.878Z,5.20
2019-05-21T16:49:45.327Z,7.20
2019-05-21T16:52:14.800Z,7.70
2019-05-21T16:54:44.170Z,10.17
2019-05-21T16:57:13.468Z,5.43
2019-05-21T16:59:42.764Z,5.03
2019-05-21T17:02:12.149Z,8.23
2019-05-21T17:04:41.402Z,8.10
2019-05-21T17:07:10.692Z,5.40
2019-05-21T17:09:39.968Z,5.60
2019-05-21T17:12:09.300Z,6.83
2019-05-21T17:14:38.691Z,7.50
2019-05-21T17:17:08.132Z,7.47
2019-05-21T17:19:37.484Z,6.43
2019-05-21T17:22:06.748Z,6.50
2019-05-21T17:24:36.110Z,9.53
2019-05-21T17:27:05.484Z,7.33
2019-05-21T17:29:34.769Z,5.47
2019-05-21T17:32:06.444Z,6.33
2019-05-21T17:34:35.024Z,7.33
2019-05-21T17:37:04.395Z,6.67
2019-05-21T17:39:33.775Z,7.27
2019-05-21T17:42:14.616Z,8.80
2019-05-21T17:44:34.195Z,8.30
2019-05-21T17:47:03.497Z,8.80
2019-05-21T17:49:32.760Z,9.87
2019-05-21T17:52:02.071Z,5.43
2019-05-21T17:54:31.324Z,7.00
2019-05-21T17:57:00.972Z,6.23
2019-05-21T17:59:30.299Z,7.57
2019-05-21T18:02:01.173Z,8.97
2019-05-21T18:04:31.000Z,12.90
2019-05-21T18:07:00.467Z,9.87
2019-05-21T18:09:29.847Z,7.13
2019-05-21T18:11:59.267Z,9.10
2019-05-21T18:14:29.439Z,9.93
2019-05-21T18:16:59.155Z,11.37
2019-05-21T18:19:29.118Z,9.33
2019-05-21T18:21:58.383Z,11.83
2019-05-21T18:24:27.781Z,11.63
2019-05-21T18:26:57.119Z,9.40
2019-05-21T18:29:26.422Z,9.27
2019-05-21T18:31:55.767Z,7.17
2019-05-21T18:34:25.175Z,7.33
2019-05-21T18:36:54.418Z,9.03
2019-05-21T18:39:23.894Z,6.70
2019-05-21T18:41:53.182Z,7.07
2019-05-21T18:44:22.443Z,9.57
2019-05-21T18:46:51.958Z,10.73
2019-05-21T18:49:21.211Z,9.17
2019-05-21T18:51:50.470Z,10.40
2019-05-21T18:54:19.770Z,7.77
2019-05-21T18:56:49.051Z,7.83
2019-05-21T18:59:18.374Z,6.83
2019-05-21T19:01:47.650Z,8.93
2019-05-21T19:04:16.937Z,8.50
2019-05-21T19:06:46.205Z,12.97
2019-05-21T19:09:15.626Z,6.70
2019-05-21T19:11:44.958Z,8.00
2019-05-21T19:14:14.330Z,9.23
2019-05-21T19:16:43.682Z,6.77
2019-05-21T19:19:13.057Z,9.47
2019-05-21T19:21:42.498Z,7.80
2019-05-21T19:24:11.809Z,8.57
2019-05-21T19:26:43.903Z,7.87
2019-05-21T19:29:12.003Z,7.53
2019-05-21T19:31:41.261Z,8.60
2019-05-21T19:34:10.601Z,6.23
2019-05-21T19:36:39.918Z,9.10
2019-05-21T19:39:09.272Z,8.47
2019-05-21T19:41:38.658Z,6.43
2019-05-21T19:44:08.059Z,8.33
2019-05-21T19:46:37.349Z,11.63
2019-05-21T19:49:06.618Z,8.27
2019-05-21T19:51:35.942Z,8.23
2019-05-21T19:54:05.281Z,9.93
2019-05-21T19:56:36.541Z,8.27
2019-05-21T19:59:05.665Z,11.23
2019-05-21T20:01:35.141Z,13.57
2019-05-21T20:04:04.713Z,8.17
2019-05-21T20:06:34.328Z,8.00
2019-05-21T20:09:04.409Z,8.07
2019-05-21T20:11:34.276Z,9.50
2019-05-21T20:14:03.447Z,11.40
2019-05-21T20:16:33.074Z,11.03
2019-05-21T20:19:02.604Z,12.13
2019-05-21T20:21:32.077Z,11.03
2019-05-21T20:24:01.930Z,9.10
2019-05-21T20:26:33.257Z,12.43
2019-05-21T20:29:02.609Z,10.53
2019-05-21T20:31:32.131Z,10.83
2019-05-21T20:34:02.260Z,10.67
2019-05-21T20:36:31.585Z,11.57
2019-05-21T20:39:01.529Z,10.57
2019-05-21T20:41:30.956Z,14.40
2019-05-21T20:44:00.505Z,13.20
2019-05-21T20:46:29.820Z,13.50
2019-05-21T20:48:59.867Z,12.87
2019-05-21T20:51:29.262Z,11.57
2019-05-21T20:53:59.112Z,11.57
2019-05-21T20:56:28.511Z,10.07
2019-05-21T20:58:57.926Z,13.63
2019-05-21T21:01:27.548Z,11.40
2019-05-21T21:03:57.232Z,12.97
2019-05-21T21:06:35.253Z,13.10
2019-05-21T21:08:58.328Z,11.03
2019-05-21T21:11:27.576Z,10.40
2019-05-21T21:13:57.812Z,14.37
2019-05-21T21:16:27.285Z,10.70
2019-05-21T21:18:56.812Z,11.63
2019-05-21T21:21:26.328Z,16.57
2019-05-21T21:23:56.630Z,11.30
2019-05-21T21:26:26.911Z,11.30
2019-05-21T21:28:56.447Z,13.63
2019-05-21T21:31:25.723Z,12.60
2019-05-21T21:33:55.067Z,12.03
2019-05-21T21:36:24.497Z,12.97
2019-05-21T21:38:54.783Z,13.50
2019-05-21T21:41:24.447Z,12.30
2019-05-21T21:43:53.987Z,13.17
2019-05-21T21:46:23.411Z,16.00
2019-05-21T21:48:52.899Z,13.60
2019-05-21T21:51:22.167Z,14.57
2019-05-21T21:53:51.536Z,13.87
2019-05-21T21:56:20.783Z,14.67
2019-05-21T21:58:50.094Z,11.00
2019-05-21T22:01:51.843Z,12.20
2019-05-21T22:04:25.411Z,11.90
2019-05-21T22:06:55.707Z,12.57
2019-05-21T22:09:29.094Z,11.70
2019-05-21T22:11:58.878Z,12.87
2019-05-21T22:14:28.806Z,10.83
2019-05-21T22:16:58.490Z,13.03
2019-05-21T22:19:28.561Z,12.07
2019-05-21T22:21:57.890Z,13.10
2019-05-21T22:24:27.294Z,11.13
2019-05-21T22:26:57.038Z,11.70
2019-05-21T22:29:27.183Z,15.17
2019-05-21T22:31:56.658Z,13.17
2019-05-21T22:34:26.077Z,19.47
2019-05-21T22:36:55.374Z,17.10
2019-05-21T22:39:26.399Z,12.03
2019-05-21T22:41:55.863Z,16.43
2019-05-21T22:44:25.190Z,13.13
2019-05-21T22:46:54.716Z,13.20
2019-05-21T22:49:24.651Z,15.83
2019-05-21T22:51:53.994Z,13.70
2019-05-21T22:54:24.025Z,12.60
2019-05-21T22:56:53.310Z,14.47
2019-05-21T22:59:23.206Z,16.57
2019-05-21T23:01:54.593Z,12.77
2019-05-21T23:04:23.962Z,16.10
2019-05-21T23:06:53.857Z,12.73
2019-05-21T23:09:23.117Z,13.70
2019-05-21T23:11:52.422Z,14.57
2019-05-21T23:14:21.701Z,15.23
2019-05-21T23:16:51.562Z,14.63
2019-05-21T23:19:24.131Z,14.27
2019-05-21T23:21:53.540Z,11.70
2019-05-21T23:24:24.790Z,13.97
2019-05-21T23:26:54.394Z,14.30
2019-05-21T23:29:24.673Z,16.27
2019-05-21T23:31:54.444Z,18.40
2019-05-21T23:34:23.824Z,14.23
2019-05-21T23:36:53.513Z,16.40
2019-05-21T23:39:26.159Z,14.57
2019-05-21T23:41:55.973Z,13.97
2019-05-21T23:44:25.462Z,14.73
2019-05-21T23:46:55.009Z,17.53
2019-05-21T23:49:24.389Z,16.00
2019-05-21T23:51:53.673Z,12.70
2019-05-21T23:54:23.057Z,13.50
2019-05-21T23:56:52.612Z,13.30
2019-05-21T23:59:22.584Z,11.93
